Terminal Aerodrome Forecast
Issued by NWS

Home | Current Version | Previous Version | Text Only | Print | Product List | Glossary On
Versions: 1 2 3 4 5 6 7 8 9 10 11 12 13 14 15 16 17 18 19 20 21
000
FTUS41 KGYX 201129
TAFPSM
TAF
KPSM 201129Z 2012/2112 VRB03KT 4SM BR OVC050
     FM201500 23007KT P6SM BKN008
     FM210500 21005KT 1SM BR BKN001 WS020/26035KT
     FM210800 21005KT 1SM BR SCT001=

USA.gov is the U.S. government's official web portal to all federal, state and local government web resources and services.